createdAt,value
2023-02-17T00:00:05.926Z,35.87
2023-02-17T00:02:49.795Z,31.73
2023-02-17T00:05:34.954Z,33.57
2023-02-17T00:08:18.904Z,33.03
2023-02-17T00:11:02.976Z,31.30
2023-02-17T00:13:47.395Z,37.83
2023-02-17T00:16:31.268Z,33.90
2023-02-17T00:19:27.201Z,30.93
2023-02-17T00:22:12.441Z,35.97
2023-02-17T00:24:56.211Z,31.97
2023-02-17T00:27:40.069Z,32.73
2023-02-17T00:30:24.119Z,32.50
2023-02-17T00:33:09.926Z,38.53
2023-02-17T00:35:53.569Z,43.10
2023-02-17T00:38:38.893Z,47.77
2023-02-17T00:41:23.638Z,43.83
2023-02-17T00:44:07.396Z,37.73
2023-02-17T00:46:51.673Z,39.00
2023-02-17T00:49:37.212Z,36.63
2023-02-17T00:52:21.054Z,39.83
2023-02-17T00:55:06.733Z,38.80
2023-02-17T00:57:50.857Z,37.73
2023-02-17T01:00:34.956Z,38.23
2023-02-17T01:03:20.286Z,36.97
2023-02-17T01:06:09.048Z,35.13
2023-02-17T01:08:53.208Z,43.67
2023-02-17T01:11:38.966Z,40.13
2023-02-17T01:14:22.820Z,41.57
2023-02-17T01:17:06.688Z,37.30
2023-02-17T01:19:50.513Z,37.33
2023-02-17T01:22:35.030Z,33.63
2023-02-17T01:25:18.891Z,31.13
2023-02-17T01:28:04.631Z,30.23
2023-02-17T01:30:49.353Z,37.57
2023-02-17T01:33:33.212Z,31.63
2023-02-17T01:36:19.715Z,34.23
2023-02-17T01:39:03.594Z,32.63
2023-02-17T01:41:47.658Z,32.53
2023-02-17T01:44:34.150Z,34.00
2023-02-17T01:47:18.004Z,33.93
2023-02-17T01:50:01.846Z,31.47
2023-02-17T01:52:47.665Z,29.83
2023-02-17T01:55:35.090Z,28.93
2023-02-17T01:58:25.968Z,29.30
2023-02-17T02:01:11.192Z,31.77
2023-02-17T02:03:55.879Z,29.87
2023-02-17T02:06:42.065Z,32.73
2023-02-17T02:09:31.443Z,31.30
2023-02-17T02:12:23.558Z,34.60
2023-02-17T02:15:10.647Z,30.63
2023-02-17T02:18:24.405Z,29.43
2023-02-17T02:21:34.836Z,30.10
2023-02-17T02:24:29.379Z,32.30
2023-02-17T02:27:41.750Z,33.07
2023-02-17T02:30:42.425Z,31.73
2023-02-17T02:33:35.547Z,30.10
2023-02-17T02:36:23.963Z,31.30
2023-02-17T02:39:13.270Z,31.63
2023-02-17T02:42:00.140Z,33.00
2023-02-17T02:44:44.325Z,32.57
2023-02-17T02:47:44.754Z,32.77
2023-02-17T02:50:44.574Z,31.97
2023-02-17T02:53:53.626Z,29.97
2023-02-17T02:56:54.260Z,30.10
2023-02-17T02:59:53.711Z,30.33
2023-02-17T03:02:44.258Z,29.30
2023-02-17T03:05:36.819Z,29.63
2023-02-17T03:08:26.176Z,30.20
2023-02-17T03:11:10.060Z,28.70
2023-02-17T03:13:53.765Z,26.07
2023-02-17T03:16:40.141Z,26.23
2023-02-17T03:19:26.152Z,28.23
2023-02-17T03:22:20.901Z,27.70
2023-02-17T03:25:05.570Z,28.67
2023-02-17T03:27:49.731Z,25.37
2023-02-17T03:30:33.631Z,25.13
2023-02-17T03:33:17.524Z,28.07
2023-02-17T03:36:01.297Z,23.77
2023-02-17T03:38:46.670Z,23.17
2023-02-17T03:41:30.382Z,25.60
2023-02-17T03:44:14.186Z,21.10
2023-02-17T03:46:57.954Z,24.63
2023-02-17T03:49:41.636Z,22.93
2023-02-17T03:52:25.441Z,24.83
2023-02-17T03:55:10.682Z,23.03
2023-02-17T03:57:55.859Z,31.57
2023-02-17T04:00:39.828Z,28.97
2023-02-17T04:03:23.734Z,31.40
2023-02-17T04:06:08.842Z,27.83
2023-02-17T04:08:52.658Z,24.63
2023-02-17T04:11:38.082Z,29.70
2023-02-17T04:14:21.825Z,26.70
2023-02-17T04:17:05.581Z,26.00
2023-02-17T04:19:49.347Z,24.70
2023-02-17T04:22:33.125Z,24.60
2023-02-17T04:25:17.015Z,72.67
2023-02-17T04:28:02.250Z,30.10
2023-02-17T04:30:46.605Z,28.27
2023-02-17T04:33:30.969Z,26.77
2023-02-17T04:36:14.755Z,33.20
2023-02-17T04:38:58.833Z,48.13
2023-02-17T04:41:42.650Z,29.57
2023-02-17T04:44:28.010Z,52.87
2023-02-17T04:47:11.844Z,71.07
2023-02-17T04:49:55.727Z,60.50
2023-02-17T04:52:39.929Z,68.47
2023-02-17T04:55:23.871Z,37.20
2023-02-17T04:58:07.694Z,27.30
2023-02-17T05:00:52.925Z,29.83
2023-02-17T05:03:36.786Z,32.63
2023-02-17T05:06:20.611Z,40.03
2023-02-17T05:09:04.588Z,40.27
2023-02-17T05:11:48.315Z,27.87
2023-02-17T05:14:32.080Z,34.40
2023-02-17T05:17:17.286Z,26.57
2023-02-17T05:20:01.387Z,25.43
2023-02-17T05:22:46.631Z,30.77
2023-02-17T05:25:30.853Z,29.80
2023-02-17T05:28:14.692Z,28.93
2023-02-17T05:30:58.589Z,25.90
2023-02-17T05:33:43.752Z,24.23
2023-02-17T05:36:27.515Z,63.00
2023-02-17T05:39:11.332Z,78.10
2023-02-17T05:41:56.657Z,27.17
2023-02-17T05:44:40.526Z,27.83
2023-02-17T05:47:26.650Z,27.57
2023-02-17T05:50:13.529Z,26.83
2023-02-17T05:52:57.450Z,28.53
2023-02-17T05:55:41.167Z,27.47
2023-02-17T05:58:25.159Z,63.40
2023-02-17T06:01:09.911Z,43.87
2023-02-17T06:03:53.905Z,36.20
2023-02-17T06:06:39.238Z,39.10
2023-02-17T06:09:23.102Z,45.47
2023-02-17T06:12:07.245Z,105.47
2023-02-17T06:14:50.994Z,110.33
2023-02-17T06:17:34.789Z,106.53
2023-02-17T06:20:18.833Z,129.03
2023-02-17T06:23:03.994Z,110.20
2023-02-17T06:25:47.887Z,107.97
2023-02-17T06:28:33.645Z,96.77
2023-02-17T06:31:18.786Z,64.77
2023-02-17T06:34:04.327Z,68.73
2023-02-17T06:36:50.402Z,47.70
2023-02-17T06:39:35.625Z,57.50
2023-02-17T06:42:19.684Z,80.47
2023-02-17T06:45:06.138Z,81.20
2023-02-17T06:47:50.130Z,64.23
2023-02-17T06:50:34.067Z,60.57
2023-02-17T06:53:17.853Z,53.90
2023-02-17T06:56:03.059Z,50.97
2023-02-17T06:58:46.916Z,40.50
2023-02-17T07:01:31.228Z,35.07
2023-02-17T07:04:15.074Z,39.07
2023-02-17T07:06:59.040Z,41.77
2023-02-17T07:09:42.905Z,43.03
2023-02-17T07:12:29.141Z,40.63
2023-02-17T07:15:13.108Z,42.67
2023-02-17T07:17:56.999Z,39.07
2023-02-17T07:20:40.744Z,35.73
2023-02-17T07:23:25.081Z,33.57
2023-02-17T07:26:10.668Z,36.87
2023-02-17T07:28:56.084Z,43.33
2023-02-17T07:31:40.012Z,35.03
2023-02-17T07:34:23.935Z,40.47
2023-02-17T07:37:07.731Z,31.27
2023-02-17T07:39:52.480Z,28.13
2023-02-17T07:42:36.306Z,22.30
2023-02-17T07:45:21.563Z,25.27
2023-02-17T07:48:06.105Z,36.97
2023-02-17T07:50:49.970Z,42.67
2023-02-17T07:53:34.018Z,44.93
2023-02-17T07:56:19.964Z,40.87
2023-02-17T07:59:03.854Z,32.60
2023-02-17T08:01:49.890Z,59.47
2023-02-17T08:04:33.968Z,31.57
2023-02-17T08:07:20.298Z,30.80
2023-02-17T08:10:22.728Z,28.90
2023-02-17T08:13:21.909Z,33.37
2023-02-17T08:16:06.574Z,27.47
2023-02-17T08:18:51.923Z,26.73
2023-02-17T08:21:36.044Z,26.33
2023-02-17T08:24:21.456Z,25.43
2023-02-17T08:27:06.623Z,31.23
2023-02-17T08:29:51.338Z,27.37
2023-02-17T08:32:35.152Z,26.73
2023-02-17T08:35:22.609Z,24.77
2023-02-17T08:38:06.694Z,23.73
2023-02-17T08:40:51.040Z,24.97
2023-02-17T08:43:34.916Z,26.87
2023-02-17T08:46:20.403Z,29.33
2023-02-17T08:49:05.065Z,27.10
2023-02-17T08:51:51.388Z,24.47
2023-02-17T08:54:35.529Z,24.90
2023-02-17T08:57:21.769Z,25.17
2023-02-17T09:00:08.374Z,25.37
2023-02-17T09:02:52.874Z,26.57
2023-02-17T09:05:37.181Z,25.13
2023-02-17T09:08:23.606Z,25.57
2023-02-17T09:11:09.510Z,32.43
2023-02-17T09:13:53.451Z,27.37
2023-02-17T09:16:39.602Z,27.40
2023-02-17T09:19:25.977Z,23.80
2023-02-17T09:22:13.616Z,25.90
2023-02-17T09:25:03.010Z,26.43
2023-02-17T09:27:47.134Z,27.37
2023-02-17T09:30:31.684Z,24.17
2023-02-17T09:33:15.563Z,27.27
2023-02-17T09:35:59.609Z,29.27
2023-02-17T09:38:44.254Z,28.93
2023-02-17T09:41:35.782Z,25.17
2023-02-17T09:44:23.966Z,26.63
2023-02-17T09:47:13.414Z,28.07
2023-02-17T09:50:03.693Z,29.90
2023-02-17T09:52:56.689Z,30.53
2023-02-17T09:55:46.207Z,32.83
2023-02-17T09:58:36.050Z,26.90
2023-02-17T10:01:22.997Z,28.27
2023-02-17T10:04:12.230Z,27.80
2023-02-17T10:07:02.895Z,33.07
2023-02-17T10:09:52.433Z,29.67
2023-02-17T10:12:41.341Z,26.37
2023-02-17T10:15:32.015Z,27.83
2023-02-17T10:18:22.902Z,28.17
2023-02-17T10:21:13.257Z,28.63
2023-02-17T10:23:57.583Z,29.07
2023-02-17T10:26:53.686Z,26.17
2023-02-17T10:29:49.564Z,26.37
2023-02-17T10:32:46.001Z,27.20
2023-02-17T10:35:42.832Z,24.77
2023-02-17T10:38:42.934Z,30.87
2023-02-17T10:41:32.669Z,23.93
2023-02-17T10:44:22.488Z,27.23
2023-02-17T10:47:07.162Z,25.13
2023-02-17T10:49:55.867Z,25.43
2023-02-17T10:52:41.613Z,28.57
2023-02-17T10:55:35.109Z,23.60
2023-02-17T10:58:26.140Z,24.47
2023-02-17T11:01:10.206Z,26.53
2023-02-17T11:04:03.231Z,26.53
2023-02-17T11:06:51.553Z,27.23
2023-02-17T11:09:36.458Z,26.83
2023-02-17T11:12:26.367Z,27.90
2023-02-17T11:15:19.713Z,27.33
2023-02-17T11:18:11.699Z,25.20
2023-02-17T11:21:03.108Z,22.27
2023-02-17T11:23:55.034Z,24.93
2023-02-17T11:26:39.348Z,24.87
2023-02-17T11:29:24.976Z,25.77
2023-02-17T11:32:12.534Z,23.07
2023-02-17T11:34:58.917Z,22.97
2023-02-17T11:37:43.956Z,20.53
2023-02-17T11:40:30.972Z,23.13
2023-02-17T11:43:19.279Z,20.67
2023-02-17T11:46:16.575Z,25.50
2023-02-17T11:49:39.935Z,23.97
2023-02-17T11:52:39.836Z,24.97
2023-02-17T11:55:30.487Z,25.13
2023-02-17T11:58:31.083Z,23.60
2023-02-17T12:01:25.944Z,19.57
2023-02-17T12:04:26.878Z,17.50
2023-02-17T12:07:40.951Z,17.57
2023-02-17T12:10:38.438Z,17.17
2023-02-17T12:13:32.742Z,16.77
2023-02-17T12:16:27.902Z,19.73
2023-02-17T12:19:37.193Z,16.13
2023-02-17T12:22:28.148Z,17.03
2023-02-17T12:25:26.155Z,19.47
2023-02-17T12:28:29.727Z,18.60
2023-02-17T12:31:27.762Z,19.37
2023-02-17T12:34:21.213Z,15.87
2023-02-17T12:37:08.619Z,21.40
2023-02-17T12:39:56.225Z,16.70
2023-02-17T12:42:44.964Z,18.97
2023-02-17T12:45:38.392Z,17.37
2023-02-17T12:48:35.357Z,18.90
2023-02-17T12:51:24.388Z,19.13
2023-02-17T12:54:18.495Z,16.70
2023-02-17T12:57:12.606Z,17.33
2023-02-17T12:59:59.864Z,17.57
2023-02-17T13:02:43.840Z,16.37
2023-02-17T13:05:35.361Z,15.70
2023-02-17T13:08:24.471Z,16.90
2023-02-17T13:11:12.517Z,14.43
2023-02-17T13:13:56.718Z,14.33
2023-02-17T13:16:44.811Z,15.20
2023-02-17T13:19:30.022Z,13.77
2023-02-17T13:22:24.433Z,14.77
2023-02-17T13:25:12.030Z,14.57
2023-02-17T13:27:57.716Z,15.97
2023-02-17T13:30:43.324Z,16.40
2023-02-17T13:33:32.890Z,17.60
2023-02-17T13:36:23.346Z,15.00
2023-02-17T13:39:33.322Z,17.43
2023-02-17T13:42:40.692Z,18.80
2023-02-17T13:45:27.884Z,18.43
2023-02-17T13:48:23.773Z,15.27
2023-02-17T13:51:09.904Z,17.60
2023-02-17T13:53:54.286Z,19.43
2023-02-17T13:56:41.208Z,25.57
2023-02-17T13:59:28.345Z,17.73
2023-02-17T14:02:35.159Z,24.77
2023-02-17T14:05:22.450Z,23.03
2023-02-17T14:08:09.079Z,24.80
2023-02-17T14:10:53.260Z,23.73
2023-02-17T14:13:40.569Z,22.27
2023-02-17T14:16:30.796Z,20.63
2023-02-17T14:19:17.736Z,25.13
2023-02-17T14:22:04.918Z,26.47
2023-02-17T14:25:00.136Z,21.60
2023-02-17T14:27:45.998Z,23.77
2023-02-17T14:30:33.669Z,22.67
2023-02-17T14:33:23.947Z,21.20
2023-02-17T14:36:11.271Z,22.40
2023-02-17T14:38:57.145Z,19.90
2023-02-17T14:41:41.063Z,21.83
2023-02-17T14:44:25.147Z,23.67
2023-02-17T14:47:10.445Z,28.20
2023-02-17T14:49:54.464Z,22.03
2023-02-17T14:52:43.040Z,44.63
2023-02-17T14:55:34.200Z,23.70
2023-02-17T14:58:21.246Z,34.13
2023-02-17T15:01:06.075Z,24.60
2023-02-17T15:03:51.938Z,32.20
2023-02-17T15:06:41.006Z,34.17
2023-02-17T15:09:29.738Z,39.47
2023-02-17T15:12:16.309Z,29.40
2023-02-17T15:15:00.082Z,28.73
2023-02-17T15:17:44.559Z,31.97
2023-02-17T15:20:29.856Z,33.37
2023-02-17T15:23:15.847Z,29.20
2023-02-17T15:26:00.470Z,35.30
2023-02-17T15:28:44.644Z,35.53
2023-02-17T15:31:31.445Z,41.47
2023-02-17T15:34:17.905Z,36.10
2023-02-17T15:37:03.571Z,50.03
2023-02-17T15:39:47.516Z,34.90
2023-02-17T15:42:31.498Z,63.23
2023-02-17T15:45:18.385Z,37.10
2023-02-17T15:48:05.693Z,30.97
2023-02-17T15:50:49.883Z,31.77
2023-02-17T15:53:35.206Z,55.03
2023-02-17T15:56:22.706Z,34.03
2023-02-17T15:59:13.223Z,61.73
2023-02-17T16:01:57.644Z,54.07
2023-02-17T16:04:41.678Z,35.87
2023-02-17T16:07:25.742Z,28.03
2023-02-17T16:10:13.658Z,32.50
2023-02-17T16:12:59.575Z,31.23
2023-02-17T16:15:44.661Z,35.70
2023-02-17T16:18:28.533Z,29.50
2023-02-17T16:21:14.198Z,27.30
2023-02-17T16:24:00.454Z,33.00
2023-02-17T16:26:45.829Z,30.43
2023-02-17T16:29:29.786Z,36.63
2023-02-17T16:32:14.419Z,34.53
2023-02-17T16:34:58.594Z,33.73
2023-02-17T16:37:42.960Z,31.60
2023-02-17T16:40:30.001Z,35.87
2023-02-17T16:43:18.232Z,35.03
2023-02-17T16:46:06.257Z,40.30
2023-02-17T16:48:50.789Z,36.20
2023-02-17T16:51:34.610Z,39.60
2023-02-17T16:54:19.540Z,33.90
2023-02-17T16:57:03.403Z,52.13
2023-02-17T16:59:49.146Z,63.37
2023-02-17T17:02:33.131Z,38.43
2023-02-17T17:05:18.114Z,30.13
2023-02-17T17:08:02.059Z,29.50
2023-02-17T17:10:47.652Z,35.63
2023-02-17T17:13:31.767Z,40.70
2023-02-17T17:16:20.284Z,39.57
2023-02-17T17:19:05.085Z,32.20
2023-02-17T17:21:49.427Z,27.07
2023-02-17T17:24:33.507Z,46.03
2023-02-17T17:27:17.414Z,33.73
2023-02-17T17:30:01.465Z,32.23
2023-02-17T17:32:49.181Z,27.83
2023-02-17T17:35:33.477Z,26.57
2023-02-17T17:38:17.459Z,30.83
2023-02-17T17:41:08.185Z,23.80
2023-02-17T17:43:52.623Z,24.77
2023-02-17T17:46:37.874Z,26.07
2023-02-17T17:49:23.241Z,25.97
2023-02-17T17:52:07.115Z,27.73
2023-02-17T17:54:51.320Z,25.13
2023-02-17T17:57:35.218Z,25.33
2023-02-17T18:00:20.619Z,24.07
2023-02-17T18:03:05.157Z,24.10
2023-02-17T18:05:50.693Z,26.37
2023-02-17T18:08:35.460Z,27.53
2023-02-17T18:11:23.144Z,29.23
2023-02-17T18:14:12.448Z,30.33
2023-02-17T18:16:57.025Z,22.50
2023-02-17T18:19:41.638Z,23.10
2023-02-17T18:22:27.146Z,22.37
2023-02-17T18:25:11.617Z,20.90
2023-02-17T18:27:57.048Z,20.93
2023-02-17T18:30:41.240Z,20.37
2023-02-17T18:33:25.436Z,20.90
2023-02-17T18:36:11.159Z,19.13
2023-02-17T18:38:56.611Z,19.10
2023-02-17T18:41:40.614Z,20.43
2023-02-17T18:44:26.367Z,23.20
2023-02-17T18:47:10.311Z,18.73
2023-02-17T18:49:54.496Z,17.27
2023-02-17T18:52:38.586Z,21.23
2023-02-17T18:55:24.004Z,22.20
2023-02-17T18:58:07.992Z,20.30
2023-02-17T19:00:52.100Z,21.30
2023-02-17T19:03:35.918Z,19.47
2023-02-17T19:06:22.724Z,20.53
2023-02-17T19:09:07.016Z,20.50
2023-02-17T19:11:52.394Z,18.77
2023-02-17T19:14:36.649Z,19.70
2023-02-17T19:17:20.892Z,18.87
2023-02-17T19:20:05.244Z,19.73
2023-02-17T19:22:49.285Z,22.87
2023-02-17T19:25:33.223Z,15.53
2023-02-17T19:28:18.484Z,13.97
2023-02-17T19:31:02.801Z,15.23
2023-02-17T19:33:47.292Z,17.87
2023-02-17T19:36:31.183Z,23.33
2023-02-17T19:39:15.122Z,37.60
2023-02-17T19:41:58.947Z,39.50
2023-02-17T19:44:44.566Z,46.07
2023-02-17T19:47:30.891Z,36.00
2023-02-17T19:50:17.811Z,64.37
2023-02-17T19:53:01.927Z,53.63
2023-02-17T19:55:45.878Z,46.60
2023-02-17T19:58:29.815Z,40.13
2023-02-17T20:01:18.211Z,35.63
2023-02-17T20:04:05.602Z,43.53
2023-02-17T20:06:49.686Z,43.57
2023-02-17T20:09:33.431Z,27.70
2023-02-17T20:12:17.965Z,19.30
2023-02-17T20:15:01.865Z,17.53
2023-02-17T20:17:48.690Z,35.00
2023-02-17T20:20:32.521Z,30.37
2023-02-17T20:23:16.497Z,18.20
2023-02-17T20:26:00.909Z,17.50
2023-02-17T20:28:45.124Z,24.30
2023-02-17T20:31:29.662Z,39.53
2023-02-17T20:34:27.174Z,26.03
2023-02-17T20:37:11.536Z,21.40
2023-02-17T20:39:55.624Z,14.73
2023-02-17T20:42:39.468Z,19.87
2023-02-17T20:45:23.532Z,19.40
2023-02-17T20:48:07.407Z,20.20
2023-02-17T20:50:52.656Z,28.37
2023-02-17T20:53:36.734Z,28.07
2023-02-17T20:56:22.971Z,23.03
2023-02-17T20:59:09.007Z,25.00
2023-02-17T21:01:53.152Z,29.57
2023-02-17T21:04:37.276Z,26.50
2023-02-17T21:07:22.501Z,48.00
2023-02-17T21:10:08.693Z,38.23
2023-02-17T21:12:52.621Z,29.40
2023-02-17T21:15:36.504Z,23.33
2023-02-17T21:18:20.612Z,23.47
2023-02-17T21:21:04.678Z,20.57
2023-02-17T21:23:50.028Z,23.27
2023-02-17T21:26:34.166Z,19.23
2023-02-17T21:29:18.603Z,25.20
2023-02-17T21:32:02.498Z,20.60
2023-02-17T21:34:46.527Z,21.17
2023-02-17T21:37:30.823Z,18.97
2023-02-17T21:40:16.386Z,25.30
2023-02-17T21:43:17.429Z,23.27
2023-02-17T21:46:01.490Z,25.23
2023-02-17T21:48:47.973Z,26.37
2023-02-17T21:51:32.195Z,29.10
2023-02-17T21:54:16.241Z,26.83
2023-02-17T21:57:04.228Z,28.10
2023-02-17T21:59:48.477Z,32.47
2023-02-17T22:02:32.535Z,33.80
2023-02-17T22:05:17.138Z,31.20
2023-02-17T22:08:00.904Z,26.60
2023-02-17T22:10:46.077Z,31.03
2023-02-17T22:13:31.264Z,25.47
2023-02-17T22:16:15.090Z,44.70
2023-02-17T22:18:58.967Z,32.87
2023-02-17T22:21:43.560Z,31.70
2023-02-17T22:24:28.101Z,34.47
2023-02-17T22:27:12.035Z,28.43
2023-02-17T22:29:57.982Z,32.93
2023-02-17T22:32:43.113Z,33.03
2023-02-17T22:35:26.907Z,31.13
2023-02-17T22:38:11.659Z,32.80
2023-02-17T22:40:55.548Z,30.63
2023-02-17T22:43:42.213Z,32.00
2023-02-17T22:46:27.809Z,31.70
2023-02-17T22:49:12.043Z,29.67
2023-02-17T22:51:55.868Z,28.07
2023-02-17T22:54:41.068Z,29.13
2023-02-17T22:57:24.936Z,29.07
2023-02-17T23:00:09.596Z,31.20
2023-02-17T23:02:54.875Z,27.73
2023-02-17T23:05:38.678Z,27.67
2023-02-17T23:08:22.539Z,29.77
2023-02-17T23:11:07.280Z,23.17
2023-02-17T23:13:51.122Z,27.20
2023-02-17T23:16:35.141Z,29.33
2023-02-17T23:19:22.761Z,23.53
2023-02-17T23:22:09.047Z,19.60
2023-02-17T23:24:52.803Z,18.67
2023-02-17T23:27:36.662Z,18.87
2023-02-17T23:30:23.174Z,21.30
2023-02-17T23:33:06.968Z,21.00
2023-02-17T23:35:52.143Z,22.07
2023-02-17T23:38:36.094Z,23.80
2023-02-17T23:41:19.833Z,21.37
2023-02-17T23:44:03.801Z,19.43
2023-02-17T23:46:47.904Z,24.07
2023-02-17T23:49:31.643Z,22.70
2023-02-17T23:52:16.829Z,16.70
2023-02-17T23:55:00.675Z,21.10
2023-02-17T23:57:44.390Z,19.40
